Time;durP1;ratioP1;P1;durP2;ratioP2;P2;SDS_P1;SDS_P2;PMS_P1;PMS_P2;Temp;Humidity;BMP_temperature;BMP_pressure;BME280_temperature;BME280_humidity;BME280_pressure;Samples;Min_cycle;Max_cycle;Signal;HPM_P1;HPM_P2
2021/07/26 00:00:54;;;;;;;3.63;3.33;;;;;;;18.54;100.00;96768.56;5031699;28;20202;-84
2021/07/26 00:03:21;;;;;;;3.27;3.03;;;;;;;18.53;100.00;96766.91;5031514;28;20285;-84
2021/07/26 00:05:55;;;;;;;3.37;3.17;;;;;;;18.71;100.00;96771.72;5032038;28;20228;-83
2021/07/26 00:08:24;;;;;;;5.47;4.03;;;;;;;18.52;100.00;96774.06;5035521;28;20187;-83
2021/07/26 00:10:59;;;;;;;3.30;3.10;;;;;;;18.31;100.00;96771.47;5035652;28;20228;-83
2021/07/26 00:13:27;;;;;;;3.43;3.00;;;;;;;18.04;100.00;96765.16;5035688;28;20182;-83
2021/07/26 00:15:54;;;;;;;3.83;3.43;;;;;;;18.19;100.00;96768.53;5035261;28;20691;-84
2021/07/26 00:18:22;;;;;;;3.37;3.03;;;;;;;18.34;100.00;96770.28;5035274;28;20234;-83
2021/07/26 00:20:49;;;;;;;3.70;3.30;;;;;;;18.54;100.00;96768.56;5035436;28;20187;-83
2021/07/26 00:23:17;;;;;;;6.33;4.17;;;;;;;18.35;100.00;96769.25;5035376;28;20618;-83
2021/07/26 00:25:46;;;;;;;3.47;2.97;;;;;;;18.19;100.00;96759.75;5035225;28;20417;-83
2021/07/26 00:28:13;;;;;;;4.70;3.40;;;;;;;18.23;100.00;96753.84;5034817;28;20202;-83
2021/07/26 00:30:40;;;;;;;3.60;2.97;;;;;;;18.29;100.00;96765.53;5035542;28;20226;-83
2021/07/26 00:34:04;;;;;;;7.50;3.53;;;;;;;18.20;100.00;96767.53;5034954;28;20242;-83
2021/07/26 00:36:32;;;;;;;3.00;2.70;;;;;;;18.14;100.00;96762.97;5011396;28;20201;-83
2021/07/26 00:38:59;;;;;;;3.47;3.20;;;;;;;18.14;100.00;96762.97;5034766;28;20221;-83
2021/07/26 00:41:28;;;;;;;9.13;3.43;;;;;;;17.96;100.00;96770.63;5034860;28;20656;-83
2021/07/26 00:43:55;;;;;;;3.33;3.03;;;;;;;17.89;100.00;96775.06;5034490;28;20245;-83
2021/07/26 00:46:22;;;;;;;3.80;3.17;;;;;;;17.59;100.00;96777.81;5034766;28;20237;-83
2021/07/26 00:48:50;;;;;;;3.30;3.10;;;;;;;17.63;100.00;96773.78;5034351;28;20283;-83
2021/07/26 00:51:18;;;;;;;5.23;3.20;;;;;;;17.83;100.00;96756.19;5034838;28;20762;-83
2021/07/26 00:53:46;;;;;;;3.27;3.00;;;;;;;17.78;100.00;96750.63;5034971;28;20214;-83
2021/07/26 00:56:14;;;;;;;3.40;3.10;;;;;;;17.80;100.00;96756.59;5034574;28;20225;-83
2021/07/26 00:58:44;;;;;;;3.17;2.97;;;;;;;17.82;100.00;96759.88;5034496;28;20245;-83
2021/07/26 01:01:13;;;;;;;5.50;3.20;;;;;;;17.74;100.00;96749.34;5034585;28;20206;-83
2021/07/26 01:03:42;;;;;;;2.80;2.60;;;;;;;17.58;100.00;96744.28;5034368;28;20306;-83
2021/07/26 01:06:09;;;;;;;2.80;2.60;;;;;;;17.58;100.00;96725.69;5034516;28;20249;-83
2021/07/26 01:08:36;;;;;;;4.87;3.17;;;;;;;17.65;100.00;96721.25;5034400;28;20206;-84
2021/07/26 01:11:04;;;;;;;6.00;3.30;;;;;;;17.81;100.00;96736.97;5034439;28;20253;-84
2021/07/26 01:13:31;;;;;;;4.17;3.87;;;;;;;17.87;100.00;96734.53;5034146;28;20190;-83
2021/07/26 01:16:01;;;;;;;4.77;3.27;;;;;;;17.79;100.00;96741.63;5034092;28;20199;-83
2021/07/26 01:18:28;;;;;;;3.37;3.10;;;;;;;17.57;100.00;96742.66;5033197;28;20207;-83
2021/07/26 01:20:58;;;;;;;7.33;3.73;;;;;;;17.31;100.00;96737.91;5034148;28;20195;-83
2021/07/26 01:23:27;;;;;;;5.13;3.07;;;;;;;17.22;100.00;96725.78;5034045;28;20289;-84
2021/07/26 01:25:55;;;;;;;2.90;2.70;;;;;;;17.37;100.00;96715.91;5033865;28;20234;-83
2021/07/26 01:28:24;;;;;;;6.03;3.93;;;;;;;17.50;100.00;96728.50;5033900;28;20686;-83
2021/07/26 01:30:51;;;;;;;3.47;3.17;;;;;;;17.30;100.00;96728.28;5033950;28;20211;-83
2021/07/26 01:33:19;;;;;;;5.13;3.10;;;;;;;17.45;100.00;96720.25;5033830;28;20203;-83
2021/07/26 01:35:46;;;;;;;5.90;4.00;;;;;;;17.20;100.00;96704.69;5033758;28;20717;-83
2021/07/26 01:38:15;;;;;;;3.43;3.23;;;;;;;17.33;100.00;96696.84;5033722;28;20656;-83
2021/07/26 01:40:44;;;;;;;3.33;3.13;;;;;;;17.55;100.00;96704.81;5033908;28;20683;-83
2021/07/26 01:43:12;;;;;;;5.27;3.47;;;;;;;17.38;100.00;96708.75;5033158;28;20230;-83
2021/07/26 01:45:41;;;;;;;3.23;3.03;;;;;;;17.58;100.00;96715.88;5033650;28;20222;-83
2021/07/26 01:48:12;;;;;;;4.10;3.20;;;;;;;17.56;100.00;96706.44;5033547;28;20202;-83
2021/07/26 01:50:45;;;;;;;3.33;2.80;;;;;;;17.45;100.00;96701.66;5033774;28;20193;-83
2021/07/26 01:53:13;;;;;;;3.60;3.30;;;;;;;17.55;100.00;96700.31;5033236;28;20666;-83
2021/07/26 01:55:41;;;;;;;8.40;3.63;;;;;;;17.37;100.00;96697.28;5033981;28;20195;-83
2021/07/26 01:58:09;;;;;;;4.53;4.00;;;;;;;17.53;100.00;96690.91;5033578;28;20281;-83
2021/07/26 02:00:36;;;;;;;3.00;2.77;;;;;;;17.51;100.00;96698.22;5033282;28;20202;-83
2021/07/26 02:03:03;;;;;;;3.50;3.20;;;;;;;17.17;100.00;96697.09;5033538;28;20253;-83
2021/07/26 02:05:30;;;;;;;5.37;4.03;;;;;;;16.97;100.00;96688.94;5033608;28;20258;-83
2021/07/26 02:07:58;;;;;;;3.87;3.20;;;;;;;16.55;100.00;96676.38;5033122;28;20234;-83
2021/07/26 02:10:25;;;;;;;4.87;3.17;;;;;;;16.60;100.00;96674.00;5033019;28;20202;-83
2021/07/26 02:12:54;;;;;;;3.87;3.53;;;;;;;16.94;100.00;96683.16;5033353;28;20209;-83
2021/07/26 02:15:21;;;;;;;3.47;3.27;;;;;;;16.92;100.00;96682.56;5033513;28;20287;-83
2021/07/26 02:17:48;;;;;;;3.80;3.50;;;;;;;17.06;100.00;96695.78;5033313;28;20199;-83
2021/07/26 02:20:16;;;;;;;3.10;2.90;;;;;;;16.82;100.00;96688.16;5032931;28;20293;-83
2021/07/26 02:22:44;;;;;;;3.33;3.03;;;;;;;16.84;100.00;96686.16;5033190;28;20587;-83
2021/07/26 02:25:12;;;;;;;4.40;3.23;;;;;;;16.90;100.00;96676.59;5033311;28;20219;-83
2021/07/26 02:27:40;;;;;;;4.83;3.07;;;;;;;16.87;100.00;96678.63;5033095;28;20232;-83
2021/07/26 02:30:10;;;;;;;3.70;3.40;;;;;;;16.91;100.00;96670.28;5032479;28;20235;-82
2021/07/26 02:32:37;;;;;;;3.63;3.33;;;;;;;16.84;100.00;96671.03;5032654;28;20738;-83
2021/07/26 02:35:05;;;;;;;4.20;3.30;;;;;;;16.80;100.00;96671.59;5032848;28;20234;-83
2021/07/26 02:37:32;;;;;;;5.37;3.57;;;;;;;16.94;100.00;96668.09;5032646;28;20208;-83
2021/07/26 02:39:59;;;;;;;6.50;3.13;;;;;;;16.78;100.00;96669.13;5032471;28;20206;-82
2021/07/26 02:42:27;;;;;;;8.17;3.27;;;;;;;16.83;100.00;96660.59;5032484;28;20321;-82
2021/07/26 02:44:54;;;;;;;7.63;3.23;;;;;;;16.78;100.00;96663.81;5032587;28;20316;-84
2021/07/26 02:47:23;;;;;;;4.20;3.13;;;;;;;16.49;100.00;96663.88;5032380;28;20667;-83
2021/07/26 02:49:50;;;;;;;5.17;3.40;;;;;;;16.77;100.00;96662.19;5032306;28;20249;-84
2021/07/26 02:52:17;;;;;;;7.43;3.27;;;;;;;16.91;100.00;96671.13;5032331;28;20208;-83
2021/07/26 02:54:45;;;;;;;4.47;3.80;;;;;;;17.05;100.00;96683.50;5032393;28;20195;-83
2021/07/26 02:57:12;;;;;;;4.20;3.47;;;;;;;17.13;100.00;96685.22;5032127;28;20292;-82
2021/07/26 02:59:39;;;;;;;3.53;3.23;;;;;;;17.03;100.00;96684.69;5032151;28;20207;-83
2021/07/26 03:02:07;;;;;;;5.87;3.43;;;;;;;16.93;100.00;96673.56;5032018;28;20210;-83
2021/07/26 03:04:36;;;;;;;4.03;3.50;;;;;;;16.82;100.00;96670.41;5032307;28;20256;-83
2021/07/26 03:07:03;;;;;;;3.90;3.30;;;;;;;16.92;100.00;96671.94;5032314;28;20225;-82
2021/07/26 03:09:31;;;;;;;3.70;3.40;;;;;;;16.87;100.00;96672.50;5031955;28;20289;-83
2021/07/26 03:11:58;;;;;;;5.73;4.27;;;;;;;16.82;100.00;96681.00;5031943;28;20264;-83
2021/07/26 03:14:25;;;;;;;5.10;3.63;;;;;;;16.96;100.00;96683.81;5032173;28;20238;-82
2021/07/26 03:16:53;;;;;;;4.07;3.77;;;;;;;16.83;100.00;96685.34;5031888;28;20191;-82
2021/07/26 03:19:20;;;;;;;4.93;3.57;;;;;;;16.73;100.00;96682.13;5031879;28;20249;-82
2021/07/26 03:22:20;;;;;;;4.40;3.90;;;;;;;16.64;100.00;96675.28;5031991;28;20191;-83
2021/07/26 03:24:49;;;;;;;8.43;3.67;;;;;;;16.59;100.00;96669.69;5000072;28;20202;-82
2021/07/26 03:27:16;;;;;;;6.17;3.80;;;;;;;16.49;100.00;96677.97;5028706;28;20285;-83
2021/07/26 03:29:43;;;;;;;6.33;3.87;;;;;;;16.46;100.00;96682.81;5031608;28;20272;-83
2021/07/26 03:32:11;;;;;;;3.37;3.10;;;;;;;16.50;100.00;96673.47;5031600;28;20203;-83
2021/07/26 03:34:38;;;;;;;4.10;3.70;;;;;;;16.63;100.00;96678.94;5031718;28;20210;-83
2021/07/26 03:37:05;;;;;;;5.43;3.77;;;;;;;16.53;100.00;96681.06;5031832;28;20198;-83
2021/07/26 03:39:33;;;;;;;4.27;3.67;;;;;;;16.41;100.00;96673.56;5041347;28;20195;-84
2021/07/26 03:42:01;;;;;;;4.37;3.87;;;;;;;16.47;100.00;96677.31;5030751;28;20305;-83
2021/07/26 03:44:29;;;;;;;5.53;3.77;;;;;;;16.31;100.00;96694.22;5031842;28;20190;-83
2021/07/26 03:46:59;;;;;;;4.80;3.57;;;;;;;16.31;100.00;96678.31;5031497;28;20225;-83
2021/07/26 03:49:27;;;;;;;5.60;4.30;;;;;;;16.41;100.00;96675.38;5031784;28;20186;-84
2021/07/26 03:51:54;;;;;;;7.13;3.77;;;;;;;16.46;100.00;96672.19;5031083;28;20237;-83
2021/07/26 03:54:21;;;;;;;4.00;3.70;;;;;;;16.35;100.00;96681.47;5031770;28;20233;-82
2021/07/26 03:56:48;;;;;;;15.50;4.97;;;;;;;16.04;100.00;96679.00;5031843;28;20225;-82
2021/07/26 03:59:17;;;;;;;3.60;3.30;;;;;;;16.09;100.00;96671.31;5031578;28;20627;-81
2021/07/26 04:01:44;;;;;;;11.27;3.97;;;;;;;16.08;100.00;96674.97;5031090;28;20242;-81
2021/07/26 04:04:11;;;;;;;4.20;3.83;;;;;;;16.59;100.00;96693.56;5031103;28;20264;-82
2021/07/26 04:06:41;;;;;;;4.40;4.10;;;;;;;16.97;100.00;96714.66;5031362;28;20284;-81
2021/07/26 04:09:08;;;;;;;4.80;4.40;;;;;;;17.14;100.00;96729.34;5031516;28;20202;-81
2021/07/26 04:11:38;;;;;;;4.20;3.80;;;;;;;17.23;100.00;96736.19;5031255;28;20198;-81
2021/07/26 04:14:06;;;;;;;5.47;4.00;;;;;;;17.28;100.00;96741.78;5031530;28;20626;-81
2021/07/26 04:16:35;;;;;;;6.20;4.53;;;;;;;17.34;100.00;96748.97;5031428;28;20202;-81
2021/07/26 04:19:03;;;;;;;4.23;3.83;;;;;;;17.35;100.00;96747.97;5031757;28;20205;-81
2021/07/26 04:21:31;;;;;;;3.80;3.47;;;;;;;17.42;100.00;96745.34;5028519;28;20202;-81
2021/07/26 04:23:59;;;;;;;10.70;4.10;;;;;;;17.44;100.00;96745.19;5031358;28;20253;-81
2021/07/26 04:26:26;;;;;;;4.23;3.60;;;;;;;17.44;100.00;96753.16;5030016;28;20265;-81
2021/07/26 04:28:54;;;;;;;4.10;3.47;;;;;;;17.54;100.00;96754.47;5030197;28;20201;-81
2021/07/26 04:31:21;;;;;;;4.40;3.97;;;;;;;17.63;100.00;96763.16;5030014;28;20207;-81
2021/07/26 04:33:50;;;;;;;5.53;5.03;;;;;;;17.76;100.00;96762.47;5031222;28;20257;-81
2021/07/26 04:36:17;;;;;;;4.93;4.17;;;;;;;17.77;100.00;96759.63;5031730;28;20241;-81
2021/07/26 04:38:44;;;;;;;5.50;4.20;;;;;;;17.86;100.00;96765.63;5031385;28;20226;-81
2021/07/26 04:41:12;;;;;;;3.67;3.37;;;;;;;17.95;100.00;96768.97;5031143;28;20350;-81
2021/07/26 04:43:39;;;;;;;3.53;3.13;;;;;;;18.01;100.00;96776.16;5030982;28;20239;-81
2021/07/26 04:46:09;;;;;;;3.40;2.90;;;;;;;18.06;100.00;96782.56;5031193;28;20719;-81
2021/07/26 04:48:36;;;;;;;3.50;3.00;;;;;;;18.11;100.00;96789.97;5030840;28;20718;-81
2021/07/26 04:51:05;;;;;;;3.40;3.10;;;;;;;18.25;100.00;96794.38;5031624;28;20194;-81
2021/07/26 04:53:34;;;;;;;3.30;3.00;;;;;;;18.33;100.00;96798.72;5032703;28;20198;-81
2021/07/26 04:56:01;;;;;;;6.40;3.00;;;;;;;18.33;100.00;96787.25;5035060;28;20238;-81
2021/07/26 04:58:28;;;;;;;3.53;3.20;;;;;;;18.39;100.00;96787.31;5034523;28;20690;-81
2021/07/26 05:00:56;;;;;;;4.20;2.63;;;;;;;18.52;100.00;96784.72;5034404;28;20635;-81
2021/07/26 05:03:23;;;;;;;2.80;2.60;;;;;;;18.60;100.00;96790.88;5034384;28;20628;-81
2021/07/26 05:05:50;;;;;;;3.00;2.50;;;;;;;18.71;100.00;96793.88;5034538;28;20227;-81
2021/07/26 05:08:19;;;;;;;7.83;3.30;;;;;;;18.85;100.00;96799.28;5034667;28;20202;-81
2021/07/26 05:10:47;;;;;;;6.00;3.20;;;;;;;18.88;100.00;96796.22;5034507;28;20682;-81
2021/07/26 05:13:14;;;;;;;6.03;3.30;;;;;;;18.94;100.00;96795.41;5034031;28;20202;-81
2021/07/26 05:15:42;;;;;;;4.87;3.03;;;;;;;18.97;100.00;96795.00;5034373;28;20289;-81
2021/07/26 05:18:09;;;;;;;3.73;3.23;;;;;;;18.98;100.00;96794.81;5034131;28;20194;-81
2021/07/26 05:20:36;;;;;;;6.20;3.87;;;;;;;19.09;100.00;96796.09;5034064;28;20195;-81
2021/07/26 05:23:09;;;;;;;5.60;2.90;;;;;;;19.16;100.00;96799.59;5034357;28;20253;-81
2021/07/26 05:25:38;;;;;;;6.40;2.90;;;;;;;19.22;100.00;96798.81;5034216;28;20566;-81
2021/07/26 05:28:05;;;;;;;4.50;2.83;;;;;;;19.37;100.00;96795.16;5034010;28;20230;-81
2021/07/26 05:30:33;;;;;;;3.70;3.07;;;;;;;19.61;100.00;96801.78;5034029;28;20627;-81
2021/07/26 05:33:00;;;;;;;7.23;2.87;;;;;;;19.76;100.00;96791.78;5033884;28;20254;-81
2021/07/26 05:35:27;;;;;;;3.27;2.90;;;;;;;19.86;100.00;96799.38;5034033;28;20217;-82
2021/07/26 05:37:54;;;;;;;2.77;2.57;;;;;;;20.07;100.00;96796.50;5033841;28;20641;-81
2021/07/26 05:40:22;;;;;;;4.53;2.57;;;;;;;20.15;100.00;96809.63;5033684;28;20249;-81
2021/07/26 05:42:50;;;;;;;4.13;2.90;;;;;;;20.32;100.00;96811.88;5033559;28;20231;-82
2021/07/26 05:45:18;;;;;;;4.83;3.10;;;;;;;20.46;100.00;96808.19;5034077;28;20583;-82
2021/07/26 05:47:49;;;;;;;5.77;3.27;;;;;;;20.54;100.00;96812.50;5033517;28;20261;-81
2021/07/26 05:50:17;;;;;;;3.03;2.80;;;;;;;20.66;100.00;96816.19;5033886;28;20214;-82
2021/07/26 05:52:44;;;;;;;4.33;3.03;;;;;;;20.78;100.00;96814.53;5033515;28;20199;-82
2021/07/26 05:55:11;;;;;;;4.63;2.63;;;;;;;20.88;100.00;96814.06;5033720;28;20210;-82
2021/07/26 05:57:44;;;;;;;3.50;2.70;;;;;;;21.03;100.00;96816.50;5033673;28;20647;-81
2021/07/26 06:00:15;;;;;;;5.03;2.77;;;;;;;21.18;100.00;96824.25;5033690;28;20671;-82
2021/07/26 06:02:44;;;;;;;5.20;2.90;;;;;;;21.36;100.00;96830.56;5033157;28;20233;-81
2021/07/26 06:05:11;;;;;;;5.43;2.90;;;;;;;21.48;100.00;96828.06;5033016;28;20203;-81
2021/07/26 06:07:38;;;;;;;6.63;3.20;;;;;;;21.62;100.00;96831.47;5033462;28;20223;-82
2021/07/26 06:10:07;;;;;;;5.07;3.60;;;;;;;21.66;100.00;96837.22;5033109;28;20209;-81
2021/07/26 06:12:34;;;;;;;4.57;2.73;;;;;;;21.71;100.00;96838.19;5033134;28;20202;-82
2021/07/26 06:15:01;;;;;;;4.17;2.77;;;;;;;21.85;100.00;96838.94;5033266;28;20198;-82
2021/07/26 06:17:30;;;;;;;3.87;2.77;;;;;;;22.03;100.00;96843.53;5033399;28;20252;-82
2021/07/26 06:19:57;;;;;;;2.47;2.37;;;;;;;22.31;100.00;96841.31;5033244;28;20199;-81
2021/07/26 06:22:25;;;;;;;5.40;2.63;;;;;;;22.50;100.00;96841.38;5032716;28;20203;-82
2021/07/26 06:24:52;;;;;;;3.50;2.63;;;;;;;22.49;100.00;96845.91;5033117;28;20237;-81
2021/07/26 06:27:19;;;;;;;3.17;2.97;;;;;;;22.66;100.00;96850.72;5032788;28;20706;-82
2021/07/26 06:29:48;;;;;;;3.27;2.60;;;;;;;22.86;100.00;96845.97;5032721;28;20194;-82
2021/07/26 06:32:16;;;;;;;4.70;2.80;;;;;;;22.93;100.00;96852.13;5033100;28;20220;-82
2021/07/26 06:34:44;;;;;;;3.30;2.93;;;;;;;23.10;100.00;96851.50;5032880;28;20294;-81
2021/07/26 06:37:12;;;;;;;3.30;2.80;;;;;;;23.29;100.00;96861.19;5032670;28;20696;-82
2021/07/26 06:39:39;;;;;;;4.93;3.53;;;;;;;23.50;100.00;96858.03;5032814;28;20759;-82
2021/07/26 06:42:06;;;;;;;3.33;3.03;;;;;;;23.62;100.00;96866.16;5032276;28;20288;-82
2021/07/26 06:44:33;;;;;;;3.50;3.00;;;;;;;23.72;100.00;96869.13;5032715;28;20297;-82
2021/07/26 06:47:01;;;;;;;5.60;2.87;;;;;;;23.89;100.00;96873.84;5032422;28;20317;-82
2021/07/26 06:49:29;;;;;;;3.90;2.53;;;;;;;24.15;100.00;96861.91;5032598;28;20194;-82
2021/07/26 06:51:58;;;;;;;4.77;3.00;;;;;;;24.35;100.00;96862.44;5032270;28;20294;-82
2021/07/26 06:54:25;;;;;;;7.13;2.50;;;;;;;24.55;100.00;96861.28;5032529;28;20198;-82
2021/07/26 06:56:53;;;;;;;5.90;2.80;;;;;;;24.82;100.00;96862.47;5032433;28;20209;-82
2021/07/26 06:59:20;;;;;;;5.50;2.60;;;;;;;25.10;100.00;96858.22;5032226;28;20198;-82
2021/07/26 07:01:48;;;;;;;3.30;2.90;;;;;;;25.34;100.00;96862.53;5032618;28;20277;-82
2021/07/26 07:04:15;;;;;;;2.93;2.70;;;;;;;25.49;100.00;96866.59;5032300;28;20226;-82
2021/07/26 07:06:42;;;;;;;4.60;2.40;;;;;;;25.20;100.00;96863.84;5032279;28;20607;-82
2021/07/26 07:09:11;;;;;;;2.57;2.47;;;;;;;25.54;100.00;96862.13;5032598;28;20581;-82
2021/07/26 07:11:38;;;;;;;3.33;2.97;;;;;;;25.60;100.00;96860.38;5032230;28;20252;-82
2021/07/26 07:14:05;;;;;;;3.33;2.57;;;;;;;25.70;100.00;96862.41;5032112;28;20198;-82
2021/07/26 07:16:32;;;;;;;3.27;2.70;;;;;;;25.87;100.00;96859.81;5031339;28;20202;-83
2021/07/26 07:19:00;;;;;;;4.00;2.50;;;;;;;26.27;100.00;96873.19;5032360;28;20201;-83
2021/07/26 07:21:28;;;;;;;5.63;2.50;;;;;;;25.96;100.00;96866.44;5032149;28;20742;-83
2021/07/26 07:23:57;;;;;;;2.80;2.60;;;;;;;26.21;100.00;96868.78;5031698;28;20237;-83
2021/07/26 07:26:26;;;;;;;2.85;2.50;;;;;;;26.60;100.00;96872.41;5032180;28;20308;-83
2021/07/26 07:28:54;;;;;;;5.97;2.78;;;;;;;26.69;100.00;96876.31;5032255;28;20226;-83
2021/07/26 07:31:26;;;;;;;5.95;2.85;;;;;;;26.99;100.00;96875.97;5032261;28;20201;-83
2021/07/26 07:33:54;;;;;;;4.72;2.40;;;;;;;27.22;100.00;96879.53;5031799;28;20273;-83
2021/07/26 07:36:21;;;;;;;2.53;2.33;;;;;;;27.35;100.00;96883.75;5031729;28;20655;-83
2021/07/26 07:38:49;;;;;;;2.85;2.65;;;;;;;27.29;100.00;96882.84;5031775;28;20201;-83
2021/07/26 07:41:17;;;;;;;4.05;2.80;;;;;;;27.77;100.00;96885.91;5031907;28;20199;-83
2021/07/26 07:43:47;;;;;;;2.45;2.28;;;;;;;27.97;100.00;96886.94;5031528;28;20227;-83
2021/07/26 07:46:16;;;;;;;3.20;2.65;;;;;;;28.19;100.00;96891.47;5031554;28;20202;-83
2021/07/26 07:48:43;;;;;;;3.17;2.80;;;;;;;27.90;100.00;96890.91;5031676;28;20248;-83
2021/07/26 07:51:11;;;;;;;4.43;2.45;;;;;;;27.72;100.00;96889.34;5031856;28;20194;-83
2021/07/26 07:53:39;;;;;;;3.90;2.00;;;;;;;27.85;100.00;96882.72;5031619;28;20198;-83
2021/07/26 07:56:06;;;;;;;2.55;2.15;;;;;;;27.66;100.00;96895.75;5031494;28;20253;-83
2021/07/26 07:58:35;;;;;;;3.03;2.72;;;;;;;27.59;100.00;96890.53;5031709;28;20199;-83
2021/07/26 08:01:05;;;;;;;13.02;2.70;;;;;;;28.13;100.00;96895.22;5031709;28;20590;-83
2021/07/26 08:03:32;;;;;;;4.07;2.35;;;;;;;28.24;100.00;96886.13;5031267;28;20234;-83
2021/07/26 08:06:01;;;;;;;2.78;2.55;;;;;;;28.48;100.00;96878.53;5031723;28;20195;-83
2021/07/26 08:08:29;;;;;;;2.88;2.40;;;;;;;28.34;100.00;96888.09;5031452;28;20222;-84
2021/07/26 08:10:56;;;;;;;3.47;2.67;;;;;;;28.58;100.00;96881.31;5031606;28;20198;-83
2021/07/26 08:13:25;;;;;;;2.55;2.35;;;;;;;28.61;100.00;96875.38;5031273;28;20206;-84
2021/07/26 08:15:54;;;;;;;4.93;2.35;;;;;;;28.52;100.00;96871.53;5031859;28;20661;-84
2021/07/26 08:18:23;;;;;;;4.85;2.85;;;;;;;28.53;100.00;96867.72;5031488;28;20225;-83
2021/07/26 08:20:51;;;;;;;5.22;2.63;;;;;;;28.40;100.00;96866.31;5031324;28;20291;-84
2021/07/26 08:23:19;;;;;;;7.32;2.70;;;;;;;28.53;100.00;96870.44;5031446;28;20237;-83
2021/07/26 08:25:46;;;;;;;3.17;2.55;;;;;;;28.84;100.00;96867.97;5031558;28;20206;-84
2021/07/26 08:28:13;;;;;;;2.90;2.67;;;;;;;28.65;100.00;96870.28;5033941;28;20234;-84
2021/07/26 08:30:41;;;;;;;2.67;2.47;;;;;;;28.53;100.00;96864.22;5035239;28;20293;-84
2021/07/26 08:33:08;;;;;;;3.92;2.42;;;;;;;28.35;100.00;96870.81;5035062;28;20225;-84
2021/07/26 08:35:37;;;;;;;3.78;2.53;;;;;;;28.47;100.00;96876.06;5035164;28;20710;-84
2021/07/26 08:38:06;;;;;;;3.38;2.92;;;;;;;28.58;100.00;96889.44;5034733;28;20281;-84
2021/07/26 08:40:35;;;;;;;3.65;2.70;;;;;;;28.48;100.00;96877.72;5035203;28;20195;-83
2021/07/26 08:43:04;;;;;;;5.10;3.08;;;;;;;28.22;100.00;96882.84;5034663;28;20231;-84
2021/07/26 08:45:32;;;;;;;6.45;3.95;;;;;;;28.19;100.00;96883.34;5034936;28;20248;-84
2021/07/26 08:48:04;;;;;;;4.32;3.03;;;;;;;28.48;100.00;96881.22;5034684;28;20225;-84
2021/07/26 08:50:33;;;;;;;7.95;3.35;;;;;;;28.68;100.00;96878.69;5034712;28;20248;-83
2021/07/26 08:53:04;;;;;;;5.00;3.00;;;;;;;28.72;100.00;96880.88;5035076;28;20194;-84
2021/07/26 08:55:32;;;;;;;3.47;3.17;;;;;;;28.79;100.00;96876.88;5034884;28;20643;-83
2021/07/26 08:58:00;;;;;;;3.20;2.90;;;;;;;28.57;100.00;96876.94;5034341;28;20198;-84
2021/07/26 09:00:28;;;;;;;4.82;3.38;;;;;;;28.54;100.00;96866.69;5034726;28;20210;-83
2021/07/26 09:02:55;;;;;;;3.70;3.17;;;;;;;28.47;100.00;96879.56;5034513;28;20260;-84
2021/07/26 09:05:24;;;;;;;3.53;2.90;;;;;;;28.62;100.00;96877.00;5035252;28;20226;-84
2021/07/26 09:07:51;;;;;;;3.42;3.20;;;;;;;28.70;100.00;96877.59;5034447;28;20309;-84
2021/07/26 09:10:21;;;;;;;3.10;2.90;;;;;;;28.87;100.00;96878.25;5034547;28;20194;-84
2021/07/26 09:12:50;;;;;;;4.00;3.40;;;;;;;28.72;100.00;96872.75;5034678;28;20202;-84
2021/07/26 09:15:28;;;;;;;3.95;3.22;;;;;;;28.49;100.00;96869.34;5034829;28;20199;-84
2021/07/26 09:17:57;;;;;;;5.60;3.20;;;;;;;28.36;100.00;96869.72;5034321;28;20688;-84
2021/07/26 09:20:28;;;;;;;5.60;3.42;;;;;;;28.61;100.00;96864.56;5034532;28;20214;-84
2021/07/26 09:22:56;;;;;;;4.13;2.83;;;;;;;28.59;100.00;96868.59;5034488;28;20191;-84
2021/07/26 09:25:26;;;;;;;4.53;3.03;;;;;;;28.74;100.00;96866.00;5034248;28;20210;-84
2021/07/26 09:27:59;;;;;;;9.80;3.35;;;;;;;28.46;100.00;96867.13;5033769;28;20597;-84
2021/07/26 09:30:28;;;;;;;3.53;3.22;;;;;;;28.73;100.00;96866.25;5034110;28;20241;-85
2021/07/26 09:32:55;;;;;;;7.28;3.33;;;;;;;28.98;100.00;96869.13;5033961;28;20237;-85
2021/07/26 09:35:26;;;;;;;4.20;3.20;;;;;;;28.57;100.00;96871.53;5034069;28;20195;-84
2021/07/26 09:38:01;;;;;;;5.47;3.03;;;;;;;28.94;100.00;96865.31;5033956;28;20241;-85
2021/07/26 09:40:33;;;;;;;3.78;3.15;;;;;;;29.28;100.00;96854.16;5033257;28;20552;-85
2021/07/26 09:43:19;;;;;;;5.00;3.28;;;;;;;29.40;100.00;96854.75;5033658;28;20230;-84
2021/07/26 09:45:47;;;;;;;3.25;2.95;;;;;;;29.50;100.00;96859.41;5034276;28;20639;-85
2021/07/26 09:48:15;;;;;;;5.20;3.15;;;;;;;29.82;100.00;96856.53;5033720;28;20610;-84
2021/07/26 09:50:44;;;;;;;4.88;3.33;;;;;;;29.77;100.00;96853.84;5033953;28;20206;-84
2021/07/26 09:53:14;;;;;;;3.53;3.15;;;;;;;29.81;100.00;96846.78;5033996;28;20202;-84
2021/07/26 09:55:44;;;;;;;3.28;3.08;;;;;;;30.13;100.00;96845.75;5033794;28;20663;-85
2021/07/26 09:58:13;;;;;;;4.93;3.35;;;;;;;30.27;100.00;96849.59;5033805;28;20222;-84
2021/07/26 10:00:41;;;;;;;3.72;3.22;;;;;;;30.31;100.00;96848.00;5033526;28;20240;-84
2021/07/26 10:03:10;;;;;;;3.30;3.10;;;;;;;30.38;100.00;96844.97;5033416;28;20241;-85
2021/07/26 10:05:39;;;;;;;5.45;3.10;;;;;;;30.13;100.00;96841.16;5033796;28;20203;-84
2021/07/26 10:08:08;;;;;;;7.72;3.35;;;;;;;30.04;100.00;96837.34;5033211;28;20222;-85
2021/07/26 10:10:36;;;;;;;4.95;3.40;;;;;;;29.74;100.00;96835.41;5033592;28;20619;-85
2021/07/26 10:13:07;;;;;;;8.27;4.03;;;;;;;30.03;100.00;96828.41;5033172;28;20265;-85
2021/07/26 10:15:35;;;;;;;4.53;2.97;;;;;;;30.08;100.00;96831.13;5033381;28;20198;-85
2021/07/26 10:18:02;;;;;;;6.10;3.92;;;;;;;29.88;100.00;96841.13;5032942;28;20233;-84
2021/07/26 10:20:32;;;;;;;3.22;2.90;;;;;;;29.95;100.00;96833.53;5033304;28;20256;-85
2021/07/26 10:23:04;;;;;;;3.58;3.25;;;;;;;29.93;100.00;96836.53;5033393;28;20579;-85
2021/07/26 10:25:37;;;;;;;4.05;2.90;;;;;;;30.44;100.00;96824.91;5033477;28;20269;-85
2021/07/26 10:28:12;;;;;;;3.15;2.83;;;;;;;30.15;100.00;96830.03;5032707;28;20236;-85
2021/07/26 10:30:39;;;;;;;3.90;3.00;;;;;;;30.13;100.00;96827.59;5033067;28;20193;-85
2021/07/26 10:33:07;;;;;;;7.38;3.58;;;;;;;30.05;100.00;96830.84;5032818;28;20203;-85
2021/07/26 10:35:47;;;;;;;3.35;3.10;;;;;;;30.02;100.00;96831.38;5032926;28;20206;-84
2021/07/26 10:38:15;;;;;;;4.50;3.15;;;;;;;30.02;100.00;96824.06;5032918;28;20197;-85
2021/07/26 10:40:43;;;;;;;5.55;3.58;;;;;;;30.31;100.00;96821.69;5032859;28;20202;-85
2021/07/26 10:43:16;;;;;;;3.33;2.97;;;;;;;30.46;100.00;96818.16;5032499;28;20227;-85
2021/07/26 10:46:07;;;;;;;5.97;3.47;;;;;;;30.00;100.00;96820.00;5032680;28;20198;-85
2021/07/26 10:48:36;;;;;;;4.13;3.38;;;;;;;30.26;100.00;96818.97;5032853;28;20301;-86
2021/07/26 10:51:24;;;;;;;7.20;3.65;;;;;;;30.29;100.00;96823.03;5032819;28;20671;-86
2021/07/26 10:53:58;;;;;;;3.20;2.92;;;;;;;30.71;100.00;96813.78;5032113;28;20202;-85
2021/07/26 10:56:25;;;;;;;3.65;3.15;;;;;;;30.74;100.00;96813.22;5032560;28;20249;-85
2021/07/26 10:59:04;;;;;;;3.47;3.17;;;;;;;30.95;100.00;96814.03;5032932;28;20655;-85
2021/07/26 11:01:56;;;;;;;4.28;2.85;;;;;;;31.12;100.00;96810.97;5032656;28;20264;-85
2021/07/26 11:04:38;;;;;;;7.47;3.30;;;;;;;31.09;100.00;96814.25;5032494;28;20258;-85
2021/07/26 11:07:07;;;;;;;5.88;3.13;;;;;;;30.90;100.00;96805.88;5032511;28;20720;-85
2021/07/26 11:09:45;;;;;;;4.55;2.67;;;;;;;30.64;100.00;96803.19;5032186;28;20237;-85
2021/07/26 11:12:13;;;;;;;7.03;3.53;;;;;;;30.75;100.00;96806.69;5032757;28;20571;-85
2021/07/26 11:15:15;;;;;;;6.35;3.08;;;;;;;30.84;100.00;96805.09;5032358;28;20256;-86
2021/07/26 11:18:28;;;;;;;3.28;2.97;;;;;;;30.93;100.00;96805.31;5031898;28;20252;-86
2021/07/26 11:21:13;;;;;;;3.97;2.95;;;;;;;31.27;100.00;96811.72;5032295;28;20226;-86
2021/07/26 11:23:52;;;;;;;6.43;3.60;;;;;;;31.31;100.00;96808.44;5032021;28;20193;-85
2021/07/26 11:26:29;;;;;;;3.40;3.20;;;;;;;31.47;100.00;96802.69;5032054;28;20183;-86
2021/07/26 11:28:58;;;;;;;5.75;3.42;;;;;;;31.29;100.00;96807.94;5031895;28;20209;-85
2021/07/26 11:31:34;;;;;;;3.38;2.95;;;;;;;31.11;100.00;96802.03;5032091;28;20191;-86
2021/07/26 11:34:12;;;;;;;5.70;3.17;;;;;;;31.22;100.00;96791.94;5031926;28;20186;-86